sensor_id;sensor_type;location;lat;lon;timestamp;pressure;altitude;pressure_sealevel;temperature;humidity
39411;BME280;26579;43.238;23.124;2023-10-31T00:00:26;96973.78;;;16.04;47.46
39411;BME280;26579;43.238;23.124;2023-10-31T00:02:51;96985.28;;;16.11;47.84
39411;BME280;26579;43.238;23.124;2023-10-31T00:05:17;96987.91;;;16.11;47.62
39411;BME280;26579;43.238;23.124;2023-10-31T00:07:43;96983.81;;;16.09;47.59
39411;BME280;26579;43.238;23.124;2023-10-31T00:10:09;96971.47;;;16.01;47.21
39411;BME280;26579;43.238;23.124;2023-10-31T00:12:34;96975.41;;;16.05;46.95
39411;BME280;26579;43.238;23.124;2023-10-31T00:15:00;96971.47;;;16.01;46.62
39411;BME280;26579;43.238;23.124;2023-10-31T00:17:26;96973.47;;;16.07;45.84
39411;BME280;26579;43.238;23.124;2023-10-31T00:19:51;96946.69;;;16.03;45.64
39411;BME280;26579;43.238;23.124;2023-10-31T00:22:17;96955.25;;;16.14;45.59
39411;BME280;26579;43.238;23.124;2023-10-31T00:24:43;96942.78;;;16.16;45.55
39411;BME280;26579;43.238;23.124;2023-10-31T00:27:09;96944.59;;;16.15;45.66
39411;BME280;26579;43.238;23.124;2023-10-31T00:29:34;96937.81;;;16.04;45.57
39411;BME280;26579;43.238;23.124;2023-10-31T00:32:00;96956.56;;;16.10;45.88
39411;BME280;26579;43.238;23.124;2023-10-31T00:34:26;96952.75;;;16.04;45.95
39411;BME280;26579;43.238;23.124;2023-10-31T00:36:51;96942.94;;;16.06;45.99
39411;BME280;26579;43.238;23.124;2023-10-31T00:39:17;96949.81;;;16.07;46.26
39411;BME280;26579;43.238;23.124;2023-10-31T00:41:46;96943.03;;;15.96;45.46
39411;BME280;26579;43.238;23.124;2023-10-31T00:44:12;96941.72;;;15.92;45.45
39411;BME280;26579;43.238;23.124;2023-10-31T00:46:38;96928.59;;;15.92;45.23
39411;BME280;26579;43.238;23.124;2023-10-31T00:49:03;96932.03;;;15.93;46.00
39411;BME280;26579;43.238;23.124;2023-10-31T00:51:29;96924.84;;;15.95;45.72
39411;BME280;26579;43.238;23.124;2023-10-31T00:53:55;96927.63;;;15.93;45.88
39411;BME280;26579;43.238;23.124;2023-10-31T00:56:22;96920.34;;;15.79;45.46
39411;BME280;26579;43.238;23.124;2023-10-31T00:58:47;96924.63;;;15.80;46.86
39411;BME280;26579;43.238;23.124;2023-10-31T01:01:14;96920.19;;;15.80;45.41
39411;BME280;26579;43.238;23.124;2023-10-31T01:03:41;96923.16;;;15.77;45.66
39411;BME280;26579;43.238;23.124;2023-10-31T01:06:07;96929.44;;;15.67;46.19
39411;BME280;26579;43.238;23.124;2023-10-31T01:08:34;96933.47;;;15.53;46.48
39411;BME280;26579;43.238;23.124;2023-10-31T01:11:00;96926.09;;;15.48;46.69
39411;BME280;26579;43.238;23.124;2023-10-31T01:13:25;96926.25;;;15.47;46.63
39411;BME280;26579;43.238;23.124;2023-10-31T01:15:51;96931.03;;;15.51;46.23
39411;BME280;26579;43.238;23.124;2023-10-31T01:18:16;96929.59;;;15.57;45.44
39411;BME280;26579;43.238;23.124;2023-10-31T01:20:42;96935.78;;;15.56;45.65
39411;BME280;26579;43.238;23.124;2023-10-31T01:23:08;96938.31;;;15.66;45.34
39411;BME280;26579;43.238;23.124;2023-10-31T01:25:33;96927.97;;;15.64;45.78
39411;BME280;26579;43.238;23.124;2023-10-31T01:27:59;96918.00;;;15.68;45.59
39411;BME280;26579;43.238;23.124;2023-10-31T01:30:25;96916.34;;;15.67;45.33
39411;BME280;26579;43.238;23.124;2023-10-31T01:32:50;96935.09;;;15.72;45.07
39411;BME280;26579;43.238;23.124;2023-10-31T01:35:16;96940.59;;;15.60;45.13
39411;BME280;26579;43.238;23.124;2023-10-31T01:37:42;96921.34;;;15.52;44.51
39411;BME280;26579;43.238;23.124;2023-10-31T01:40:12;96949.22;;;15.53;45.33
39411;BME280;26579;43.238;23.124;2023-10-31T01:42:38;96930.53;;;15.48;45.26
39411;BME280;26579;43.238;23.124;2023-10-31T01:45:04;96935.09;;;15.46;45.31
39411;BME280;26579;43.238;23.124;2023-10-31T01:47:30;96915.38;;;15.42;45.06
39411;BME280;26579;43.238;23.124;2023-10-31T01:49:57;96926.75;;;15.50;45.02
39411;BME280;26579;43.238;23.124;2023-10-31T01:52:23;96917.75;;;15.53;45.38
39411;BME280;26579;43.238;23.124;2023-10-31T01:54:49;96928.94;;;15.63;45.70
39411;BME280;26579;43.238;23.124;2023-10-31T01:57:15;96928.94;;;15.63;45.20
39411;BME280;26579;43.238;23.124;2023-10-31T01:59:41;96930.59;;;15.64;44.68
39411;BME280;26579;43.238;23.124;2023-10-31T02:02:07;96927.00;;;15.65;45.00
39411;BME280;26579;43.238;23.124;2023-10-31T02:04:32;96923.53;;;15.65;44.83
39411;BME280;26579;43.238;23.124;2023-10-31T02:06:58;96931.13;;;15.68;44.70
39411;BME280;26579;43.238;23.124;2023-10-31T02:09:24;96912.72;;;15.59;44.74
39411;BME280;26579;43.238;23.124;2023-10-31T02:11:49;96921.84;;;15.55;45.15
39411;BME280;26579;43.238;23.124;2023-10-31T02:14:15;96911.69;;;15.52;45.57
39411;BME280;26579;43.238;23.124;2023-10-31T02:16:41;96928.44;;;15.59;44.99
39411;BME280;26579;43.238;23.124;2023-10-31T02:19:07;96916.78;;;15.54;44.61
39411;BME280;26579;43.238;23.124;2023-10-31T02:21:32;96909.38;;;15.49;44.96
39411;BME280;26579;43.238;23.124;2023-10-31T02:23:59;96913.63;;;15.50;44.92
39411;BME280;26579;43.238;23.124;2023-10-31T02:26:33;96905.56;;;15.44;45.21
39411;BME280;26579;43.238;23.124;2023-10-31T02:28:59;96912.31;;;15.46;44.53
39411;BME280;26579;43.238;23.124;2023-10-31T02:31:25;96919.50;;;15.44;45.63
39411;BME280;26579;43.238;23.124;2023-10-31T02:33:51;96923.63;;;15.47;45.24
39411;BME280;26579;43.238;23.124;2023-10-31T02:36:17;96912.75;;;15.42;44.89
39411;BME280;26579;43.238;23.124;2023-10-31T02:38:44;96908.69;;;15.39;44.31
39411;BME280;26579;43.238;23.124;2023-10-31T02:41:09;96914.25;;;15.44;44.33
39411;BME280;26579;43.238;23.124;2023-10-31T02:43:36;96916.75;;;15.46;44.29
39411;BME280;26579;43.238;23.124;2023-10-31T02:46:02;96921.31;;;15.44;44.62
39411;BME280;26579;43.238;23.124;2023-10-31T02:48:28;96921.63;;;15.40;44.74
39411;BME280;26579;43.238;23.124;2023-10-31T02:50:54;96926.06;;;15.40;44.56
39411;BME280;26579;43.238;23.124;2023-10-31T02:53:20;96926.88;;;15.40;44.13
39411;BME280;26579;43.238;23.124;2023-10-31T02:55:48;96928.69;;;15.40;44.81
39411;BME280;26579;43.238;23.124;2023-10-31T02:58:13;96909.00;;;15.36;44.62
39411;BME280;26579;43.238;23.124;2023-10-31T03:00:40;96910.78;;;15.35;44.79
39411;BME280;26579;43.238;23.124;2023-10-31T03:03:05;96906.16;;;15.29;45.67
39411;BME280;26579;43.238;23.124;2023-10-31T03:05:31;96900.75;;;15.31;46.00
39411;BME280;26579;43.238;23.124;2023-10-31T03:07:57;96905.19;;;15.30;45.21
39411;BME280;26579;43.238;23.124;2023-10-31T03:10:22;96889.41;;;15.22;45.38
39411;BME280;26579;43.238;23.124;2023-10-31T03:12:48;96907.59;;;15.24;45.65
39411;BME280;26579;43.238;23.124;2023-10-31T03:15:14;96894.28;;;15.17;45.44
39411;BME280;26579;43.238;23.124;2023-10-31T03:17:39;96895.28;;;15.16;45.48
39411;BME280;26579;43.238;23.124;2023-10-31T03:20:05;96889.34;;;15.14;45.71
39411;BME280;26579;43.238;23.124;2023-10-31T03:22:31;96893.28;;;15.10;45.73
39411;BME280;26579;43.238;23.124;2023-10-31T03:24:57;96870.38;;;14.94;45.79
39411;BME280;26579;43.238;23.124;2023-10-31T03:27:22;96868.13;;;14.99;46.76
39411;BME280;26579;43.238;23.124;2023-10-31T03:29:48;96861.28;;;15.06;45.91
39411;BME280;26579;43.238;23.124;2023-10-31T03:32:14;96867.88;;;15.10;45.47
39411;BME280;26579;43.238;23.124;2023-10-31T03:34:40;96864.69;;;14.99;45.96
39411;BME280;26579;43.238;23.124;2023-10-31T03:37:06;96871.22;;;14.94;46.20
39411;BME280;26579;43.238;23.124;2023-10-31T03:39:32;96872.50;;;14.90;46.41
39411;BME280;26579;43.238;23.124;2023-10-31T03:41:58;96851.66;;;14.89;46.31
39411;BME280;26579;43.238;23.124;2023-10-31T03:44:24;96851.66;;;14.81;46.67
39411;BME280;26579;43.238;23.124;2023-10-31T03:46:50;96858.88;;;14.87;46.57
39411;BME280;26579;43.238;23.124;2023-10-31T03:49:15;96849.22;;;14.87;46.36
39411;BME280;26579;43.238;23.124;2023-10-31T03:51:41;96843.16;;;14.87;46.26
39411;BME280;26579;43.238;23.124;2023-10-31T03:54:07;96850.59;;;15.00;45.80
39411;BME280;26579;43.238;23.124;2023-10-31T03:56:43;96846.47;;;14.97;46.13
39411;BME280;26579;43.238;23.124;2023-10-31T03:59:09;96838.81;;;15.04;46.60
39411;BME280;26579;43.238;23.124;2023-10-31T04:01:34;96841.16;;;15.07;45.70
39411;BME280;26579;43.238;23.124;2023-10-31T04:04:01;96837.91;;;15.13;45.68
39411;BME280;26579;43.238;23.124;2023-10-31T04:06:27;96837.59;;;15.16;45.81
39411;BME280;26579;43.238;23.124;2023-10-31T04:08:52;96820.38;;;15.13;46.08
39411;BME280;26579;43.238;23.124;2023-10-31T04:11:18;96837.78;;;15.23;45.54
39411;BME280;26579;43.238;23.124;2023-10-31T04:13:44;96834.84;;;15.26;45.74
39411;BME280;26579;43.238;23.124;2023-10-31T04:16:09;96837.09;;;15.21;45.31
39411;BME280;26579;43.238;23.124;2023-10-31T04:18:35;96827.59;;;15.20;45.55
39411;BME280;26579;43.238;23.124;2023-10-31T04:21:01;96838.28;;;15.26;45.50
39411;BME280;26579;43.238;23.124;2023-10-31T04:23:27;96816.94;;;15.21;45.58
39411;BME280;26579;43.238;23.124;2023-10-31T04:25:53;96833.53;;;15.30;45.27
39411;BME280;26579;43.238;23.124;2023-10-31T04:28:18;96808.78;;;15.24;45.51
39411;BME280;26579;43.238;23.124;2023-10-31T04:30:44;96808.78;;;15.24;45.32
39411;BME280;26579;43.238;23.124;2023-10-31T04:33:10;96812.56;;;15.30;45.58
39411;BME280;26579;43.238;23.124;2023-10-31T04:39:23;96812.22;;;15.33;45.30
39411;BME280;26579;43.238;23.124;2023-10-31T04:41:49;96824.88;;;15.37;45.23
39411;BME280;26579;43.238;23.124;2023-10-31T04:44:15;96825.69;;;15.38;45.15
39411;BME280;26579;43.238;23.124;2023-10-31T04:46:40;96827.00;;;15.34;45.14
39411;BME280;26579;43.238;23.124;2023-10-31T04:49:06;96836.69;;;15.42;44.95
39411;BME280;26579;43.238;23.124;2023-10-31T04:51:35;96836.69;;;15.42;44.81
39411;BME280;26579;43.238;23.124;2023-10-31T04:54:02;96832.28;;;15.42;45.16
39411;BME280;26579;43.238;23.124;2023-10-31T04:56:27;96835.72;;;15.43;44.93
39411;BME280;26579;43.238;23.124;2023-10-31T04:58:53;96818.00;;;15.36;44.40
39411;BME280;26579;43.238;23.124;2023-10-31T05:01:19;96817.19;;;15.36;45.21
39411;BME280;26579;43.238;23.124;2023-10-31T05:03:45;96826.88;;;15.44;45.19
39411;BME280;26579;43.238;23.124;2023-10-31T05:06:11;96788.53;;;15.51;42.44
39411;BME280;26579;43.238;23.124;2023-10-31T05:08:37;96804.13;;;15.60;42.92
39411;BME280;26579;43.238;23.124;2023-10-31T05:11:02;96822.84;;;15.66;43.55
39411;BME280;26579;43.238;23.124;2023-10-31T05:13:28;96823.38;;;15.69;43.62
39411;BME280;26579;43.238;23.124;2023-10-31T05:15:54;96828.78;;;15.76;44.06
39411;BME280;26579;43.238;23.124;2023-10-31T05:18:20;96826.66;;;15.79;43.54
39411;BME280;26579;43.238;23.124;2023-10-31T05:20:46;96834.75;;;15.86;43.07
39411;BME280;26579;43.238;23.124;2023-10-31T05:23:12;96807.69;;;15.86;42.88
39411;BME280;26579;43.238;23.124;2023-10-31T05:25:37;96824.09;;;15.96;42.81
39411;BME280;26579;43.238;23.124;2023-10-31T05:28:04;96823.25;;;15.87;41.48
39411;BME280;26579;43.238;23.124;2023-10-31T05:30:30;96846.22;;;15.85;42.66
39411;BME280;26579;43.238;23.124;2023-10-31T05:32:55;96835.56;;;15.87;42.57
39411;BME280;26579;43.238;23.124;2023-10-31T05:35:22;96843.44;;;15.87;42.82
39411;BME280;26579;43.238;23.124;2023-10-31T05:37:48;96842.63;;;15.94;43.32
39411;BME280;26579;43.238;23.124;2023-10-31T05:40:15;96837.22;;;16.04;43.05
39411;BME280;26579;43.238;23.124;2023-10-31T05:42:40;96833.78;;;16.03;42.85
39411;BME280;26579;43.238;23.124;2023-10-31T05:45:06;96839.88;;;16.12;42.60
39411;BME280;26579;43.238;23.124;2023-10-31T05:47:32;96841.66;;;16.20;42.44
39411;BME280;26579;43.238;23.124;2023-10-31T05:49:58;96844.94;;;16.14;42.46
39411;BME280;26579;43.238;23.124;2023-10-31T05:52:23;96845.94;;;16.13;42.02
39411;BME280;26579;43.238;23.124;2023-10-31T05:58:40;96852.84;;;16.30;42.66
39411;BME280;26579;43.238;23.124;2023-10-31T06:01:06;96858.94;;;16.39;42.44
39411;BME280;26579;43.238;23.124;2023-10-31T06:03:32;96863.69;;;16.43;42.94
39411;BME280;26579;43.238;23.124;2023-10-31T06:05:58;96850.22;;;16.63;42.52
39411;BME280;26579;43.238;23.124;2023-10-31T06:08:24;96827.31;;;17.91;40.05
39411;BME280;26579;43.238;23.124;2023-10-31T06:10:52;96849.75;;;19.68;37.07
39411;BME280;26579;43.238;23.124;2023-10-31T06:13:18;96838.31;;;20.90;34.75
39411;BME280;26579;43.238;23.124;2023-10-31T06:15:43;96817.34;;;21.58;33.68
39411;BME280;26579;43.238;23.124;2023-10-31T06:18:09;96818.03;;;21.86;32.33
39411;BME280;26579;43.238;23.124;2023-10-31T06:20:34;96833.28;;;22.32;31.88
39411;BME280;26579;43.238;23.124;2023-10-31T06:23:03;96844.66;;;23.33;30.71
39411;BME280;26579;43.238;23.124;2023-10-31T06:25:29;96831.81;;;24.20;29.52
39411;BME280;26579;43.238;23.124;2023-10-31T06:27:55;96823.63;;;24.78;28.15
39411;BME280;26579;43.238;23.124;2023-10-31T06:30:21;96819.38;;;25.39;27.45
39411;BME280;26579;43.238;23.124;2023-10-31T06:32:46;96823.50;;;25.90;26.30
39411;BME280;26579;43.238;23.124;2023-10-31T06:35:12;96811.47;;;26.41;25.49
39411;BME280;26579;43.238;23.124;2023-10-31T06:37:38;96807.13;;;27.41;24.74
39411;BME280;26579;43.238;23.124;2023-10-31T06:40:04;96808.06;;;27.46;24.53
39411;BME280;26579;43.238;23.124;2023-10-31T06:42:30;96792.41;;;26.91;24.57
39411;BME280;26579;43.238;23.124;2023-10-31T06:44:56;96787.53;;;26.76;24.56
39411;BME280;26579;43.238;23.124;2023-10-31T06:47:22;96799.28;;;28.03;23.60
39411;BME280;26579;43.238;23.124;2023-10-31T06:49:48;96793.47;;;28.23;23.40
39411;BME280;26579;43.238;23.124;2023-10-31T06:52:14;96784.22;;;27.45;24.24
39411;BME280;26579;43.238;23.124;2023-10-31T06:54:39;96775.69;;;26.60;25.12
39411;BME280;26579;43.238;23.124;2023-10-31T06:57:05;96768.22;;;25.97;25.41
39411;BME280;26579;43.238;23.124;2023-10-31T06:59:30;96774.78;;;26.25;25.41
39411;BME280;26579;43.238;23.124;2023-10-31T07:01:56;96773.94;;;26.78;25.10
39411;BME280;26579;43.238;23.124;2023-10-31T07:04:22;96773.59;;;26.62;25.52
39411;BME280;26579;43.238;23.124;2023-10-31T07:06:47;96775.53;;;25.71;26.96
39411;BME280;26579;43.238;23.124;2023-10-31T07:09:13;96764.91;;;25.35;27.22
39411;BME280;26579;43.238;23.124;2023-10-31T07:11:39;96770.09;;;26.08;26.66
39411;BME280;26579;43.238;23.124;2023-10-31T07:14:05;96764.66;;;26.80;25.90
39411;BME280;26579;43.238;23.124;2023-10-31T07:16:32;96758.22;;;27.40;25.46
39411;BME280;26579;43.238;23.124;2023-10-31T07:18:57;96760.13;;;27.57;25.79
39411;BME280;26579;43.238;23.124;2023-10-31T07:21:23;96749.69;;;27.84;24.75
39411;BME280;26579;43.238;23.124;2023-10-31T07:23:49;96759.09;;;27.46;24.26
39411;BME280;26579;43.238;23.124;2023-10-31T07:26:14;96752.56;;;27.01;25.80
39411;BME280;26579;43.238;23.124;2023-10-31T07:28:40;96742.81;;;26.83;26.32
39411;BME280;26579;43.238;23.124;2023-10-31T07:31:06;96753.25;;;27.08;25.37
39411;BME280;26579;43.238;23.124;2023-10-31T07:33:31;96749.41;;;27.28;24.10
39411;BME280;26579;43.238;23.124;2023-10-31T07:35:57;96743.44;;;27.49;24.00
39411;BME280;26579;43.238;23.124;2023-10-31T07:38:23;96736.41;;;27.31;22.21
39411;BME280;26579;43.238;23.124;2023-10-31T07:40:48;96730.41;;;26.89;23.54
39411;BME280;26579;43.238;23.124;2023-10-31T07:43:15;96736.44;;;26.73;23.39
39411;BME280;26579;43.238;23.124;2023-10-31T07:45:41;96730.63;;;26.64;21.64
39411;BME280;26579;43.238;23.124;2023-10-31T07:48:07;96733.03;;;27.24;22.56
39411;BME280;26579;43.238;23.124;2023-10-31T07:50:33;96743.59;;;27.19;22.66
39411;BME280;26579;43.238;23.124;2023-10-31T07:52:58;96737.63;;;26.65;24.04
39411;BME280;26579;43.238;23.124;2023-10-31T07:55:24;96720.03;;;26.34;23.04
39411;BME280;26579;43.238;23.124;2023-10-31T07:57:50;96730.81;;;26.15;21.37
39411;BME280;26579;43.238;23.124;2023-10-31T08:00:16;96731.53;;;26.46;21.30
39411;BME280;26579;43.238;23.124;2023-10-31T08:02:41;96720.25;;;28.63;19.18
39411;BME280;26579;43.238;23.124;2023-10-31T08:05:07;96723.50;;;29.97;17.38
39411;BME280;26579;43.238;23.124;2023-10-31T08:07:33;96723.44;;;30.56;16.92
39411;BME280;26579;43.238;23.124;2023-10-31T08:09:59;96734.13;;;31.41;18.67
39411;BME280;26579;43.238;23.124;2023-10-31T08:12:24;96733.81;;;32.26;19.48
39411;BME280;26579;43.238;23.124;2023-10-31T08:14:50;96730.72;;;33.74;18.79
39411;BME280;26579;43.238;23.124;2023-10-31T08:17:15;96735.88;;;35.08;17.03
39411;BME280;26579;43.238;23.124;2023-10-31T08:19:41;96732.19;;;35.66;15.77
39411;BME280;26579;43.238;23.124;2023-10-31T08:22:07;96717.03;;;36.21;15.74
39411;BME280;26579;43.238;23.124;2023-10-31T08:24:32;96728.94;;;35.88;16.85
39411;BME280;26579;43.238;23.124;2023-10-31T08:26:58;96725.94;;;36.41;16.98
39411;BME280;26579;43.238;23.124;2023-10-31T08:29:24;96713.59;;;36.81;16.71
39411;BME280;26579;43.238;23.124;2023-10-31T08:31:49;96680.25;;;36.94;17.33
39411;BME280;26579;43.238;23.124;2023-10-31T08:34:15;96705.41;;;37.64;16.11
39411;BME280;26579;43.238;23.124;2023-10-31T08:36:40;96713.00;;;37.53;16.08
39411;BME280;26579;43.238;23.124;2023-10-31T08:39:06;96703.09;;;38.30;15.76
39411;BME280;26579;43.238;23.124;2023-10-31T08:41:32;96703.38;;;38.51;15.02
39411;BME280;26579;43.238;23.124;2023-10-31T08:43:57;96693.47;;;38.46;14.39
39411;BME280;26579;43.238;23.124;2023-10-31T08:46:23;96689.13;;;39.16;13.97
39411;BME280;26579;43.238;23.124;2023-10-31T08:48:49;96702.19;;;39.46;13.44
39411;BME280;26579;43.238;23.124;2023-10-31T08:51:14;96693.03;;;38.08;14.64
39411;BME280;26579;43.238;23.124;2023-10-31T08:53:40;96700.25;;;38.35;14.78
39411;BME280;26579;43.238;23.124;2023-10-31T08:56:06;96688.28;;;38.99;13.45
39411;BME280;26579;43.238;23.124;2023-10-31T08:58:32;96691.66;;;39.04;12.25
39411;BME280;26579;43.238;23.124;2023-10-31T09:00:57;96673.19;;;38.30;12.46
39411;BME280;26579;43.238;23.124;2023-10-31T09:03:23;96667.44;;;37.87;13.38
39411;BME280;26579;43.238;23.124;2023-10-31T09:05:49;96676.94;;;37.75;13.20
39411;BME280;26579;43.238;23.124;2023-10-31T09:08:14;96679.97;;;38.19;13.33
39411;BME280;26579;43.238;23.124;2023-10-31T09:10:40;96676.06;;;38.34;13.05
39411;BME280;26579;43.238;23.124;2023-10-31T09:13:05;96668.06;;;38.28;12.94
39411;BME280;26579;43.238;23.124;2023-10-31T09:15:31;96677.84;;;38.61;13.31
39411;BME280;26579;43.238;23.124;2023-10-31T09:17:57;96671.75;;;38.55;13.19
39411;BME280;26579;43.238;23.124;2023-10-31T09:20:23;96663.50;;;37.70;14.06
39411;BME280;26579;43.238;23.124;2023-10-31T09:22:48;96669.59;;;37.26;14.51
39411;BME280;26579;43.238;23.124;2023-10-31T09:25:14;96663.56;;;36.87;15.09
39411;BME280;26579;43.238;23.124;2023-10-31T09:27:40;96658.75;;;36.98;14.68
39411;BME280;26579;43.238;23.124;2023-10-31T09:30:07;96641.06;;;36.59;14.65
39411;BME280;26579;43.238;23.124;2023-10-31T09:32:32;96651.53;;;36.33;15.90
39411;BME280;26579;43.238;23.124;2023-10-31T09:34:58;96643.59;;;35.90;16.07
39411;BME280;26579;43.238;23.124;2023-10-31T09:37:24;96645.03;;;35.82;16.00
39411;BME280;26579;43.238;23.124;2023-10-31T09:39:49;96638.50;;;36.02;16.36
39411;BME280;26579;43.238;23.124;2023-10-31T09:42:15;96632.09;;;34.99;17.59
39411;BME280;26579;43.238;23.124;2023-10-31T09:44:41;96634.44;;;35.48;16.95
39411;BME280;26579;43.238;23.124;2023-10-31T09:47:06;96619.22;;;35.52;17.49
39411;BME280;26579;43.238;23.124;2023-10-31T09:49:33;96620.97;;;35.81;17.23
39411;BME280;26579;43.238;23.124;2023-10-31T09:51:59;96624.66;;;36.04;17.36
39411;BME280;26579;43.238;23.124;2023-10-31T09:54:26;96627.41;;;34.32;18.90
39411;BME280;26579;43.238;23.124;2023-10-31T09:56:51;96619.91;;;32.15;21.14
39411;BME280;26579;43.238;23.124;2023-10-31T09:59:17;96614.88;;;30.47;23.68
39411;BME280;26579;43.238;23.124;2023-10-31T10:01:43;96608.13;;;29.43;24.16
39411;BME280;26579;43.238;23.124;2023-10-31T10:04:09;96619.53;;;28.06;26.32
39411;BME280;26579;43.238;23.124;2023-10-31T10:06:35;96615.25;;;27.43;27.67
39411;BME280;26579;43.238;23.124;2023-10-31T10:09:05;96604.03;;;27.00;28.36
39411;BME280;26579;43.238;23.124;2023-10-31T10:11:32;96601.69;;;26.63;29.30
39411;BME280;26579;43.238;23.124;2023-10-31T10:13:59;96603.91;;;25.96;29.94
39411;BME280;26579;43.238;23.124;2023-10-31T10:16:29;96590.03;;;25.52;30.48
39411;BME280;26579;43.238;23.124;2023-10-31T10:18:55;96588.63;;;25.07;31.53
39411;BME280;26579;43.238;23.124;2023-10-31T10:21:21;96590.72;;;24.87;32.30
39411;BME280;26579;43.238;23.124;2023-10-31T10:23:47;96590.44;;;24.77;32.68
39411;BME280;26579;43.238;23.124;2023-10-31T10:26:12;96587.63;;;24.72;32.79
39411;BME280;26579;43.238;23.124;2023-10-31T10:32:25;96587.38;;;24.18;34.37
39411;BME280;26579;43.238;23.124;2023-10-31T10:34:51;96579.97;;;24.02;34.95
39411;BME280;26579;43.238;23.124;2023-10-31T10:37:18;96577.03;;;24.10;34.90
39411;BME280;26579;43.238;23.124;2023-10-31T10:39:47;96579.25;;;24.31;34.42
39411;BME280;26579;43.238;23.124;2023-10-31T10:42:16;96570.38;;;24.37;34.25
39411;BME280;26579;43.238;23.124;2023-10-31T10:44:44;96557.41;;;24.29;34.61
39411;BME280;26579;43.238;23.124;2023-10-31T10:47:12;96562.78;;;24.41;34.39
39411;BME280;26579;43.238;23.124;2023-10-31T10:49:41;96548.75;;;24.34;34.41
39411;BME280;26579;43.238;23.124;2023-10-31T10:52:28;96553.50;;;24.32;34.45
39411;BME280;26579;43.238;23.124;2023-10-31T10:55:03;96549.28;;;24.43;35.33
39411;BME280;26579;43.238;23.124;2023-10-31T10:57:44;96546.19;;;24.46;35.15
39411;BME280;26579;43.238;23.124;2023-10-31T11:00:13;96525.84;;;24.33;35.14
39411;BME280;26579;43.238;23.124;2023-10-31T11:02:40;96531.09;;;24.21;35.63
39411;BME280;26579;43.238;23.124;2023-10-31T11:05:06;96529.19;;;23.85;36.19
39411;BME280;26579;43.238;23.124;2023-10-31T11:07:32;96526.94;;;23.88;36.75
39411;BME280;26579;43.238;23.124;2023-10-31T11:09:59;96517.72;;;23.66;36.63
39411;BME280;26579;43.238;23.124;2023-10-31T11:12:25;96507.53;;;23.63;36.85
39411;BME280;26579;43.238;23.124;2023-10-31T11:14:52;96505.78;;;23.75;36.93
39411;BME280;26579;43.238;23.124;2023-10-31T11:17:27;96500.41;;;23.82;36.71
39411;BME280;26579;43.238;23.124;2023-10-31T11:19:55;96501.53;;;23.92;36.78
39411;BME280;26579;43.238;23.124;2023-10-31T11:22:21;96503.19;;;24.12;36.62
39411;BME280;26579;43.238;23.124;2023-10-31T11:24:49;96494.50;;;24.16;36.10
39411;BME280;26579;43.238;23.124;2023-10-31T11:27:16;96500.06;;;24.33;35.63
39411;BME280;26579;43.238;23.124;2023-10-31T11:29:43;96473.44;;;24.33;35.62
39411;BME280;26579;43.238;23.124;2023-10-31T11:32:10;96493.41;;;24.43;36.27
39411;BME280;26579;43.238;23.124;2023-10-31T11:34:41;96469.63;;;24.29;35.35
39411;BME280;26579;43.238;23.124;2023-10-31T11:37:31;96482.34;;;24.09;35.32
39411;BME280;26579;43.238;23.124;2023-10-31T11:42:38;96475.03;;;23.86;36.10
39411;BME280;26579;43.238;23.124;2023-10-31T11:45:08;96479.16;;;23.82;35.96
39411;BME280;26579;43.238;23.124;2023-10-31T11:47:47;96472.41;;;23.79;36.20
39411;BME280;26579;43.238;23.124;2023-10-31T11:50:13;96463.47;;;23.73;36.44
39411;BME280;26579;43.238;23.124;2023-10-31T11:52:39;96454.13;;;23.64;36.47
39411;BME280;26579;43.238;23.124;2023-10-31T11:55:09;96461.44;;;23.50;36.73
39411;BME280;26579;43.238;23.124;2023-10-31T11:57:34;96458.91;;;23.37;36.93
39411;BME280;26579;43.238;23.124;2023-10-31T12:00:00;96450.31;;;23.35;37.01
39411;BME280;26579;43.238;23.124;2023-10-31T12:02:26;96439.31;;;23.13;36.81
39411;BME280;26579;43.238;23.124;2023-10-31T12:05:06;96427.97;;;22.99;36.83
39411;BME280;26579;43.238;23.124;2023-10-31T12:07:43;96419.81;;;22.94;36.53
39411;BME280;26579;43.238;23.124;2023-10-31T12:10:09;96409.38;;;22.99;37.00
39411;BME280;26579;43.238;23.124;2023-10-31T12:12:35;96401.97;;;23.08;36.78
39411;BME280;26579;43.238;23.124;2023-10-31T12:15:07;96401.47;;;23.18;36.38
39411;BME280;26579;43.238;23.124;2023-10-31T12:17:34;96393.38;;;23.31;34.55
39411;BME280;26579;43.238;23.124;2023-10-31T12:20:07;96399.00;;;23.41;33.64
39411;BME280;26579;43.238;23.124;2023-10-31T12:22:34;96384.78;;;23.54;35.83
39411;BME280;26579;43.238;23.124;2023-10-31T12:25:04;96377.31;;;23.63;34.42
39411;BME280;26579;43.238;23.124;2023-10-31T12:27:51;96382.50;;;23.76;33.84
39411;BME280;26579;43.238;23.124;2023-10-31T12:30:18;96379.28;;;23.74;32.35
39411;BME280;26579;43.238;23.124;2023-10-31T12:32:44;96388.25;;;23.73;32.02
39411;BME280;26579;43.238;23.124;2023-10-31T12:35:20;96383.41;;;23.70;32.48
39411;BME280;26579;43.238;23.124;2023-10-31T12:37:47;96378.28;;;23.68;32.25
39411;BME280;26579;43.238;23.124;2023-10-31T12:40:17;96366.00;;;23.67;32.33
39411;BME280;26579;43.238;23.124;2023-10-31T12:42:47;96361.16;;;23.64;33.36
39411;BME280;26579;43.238;23.124;2023-10-31T12:45:13;96359.81;;;23.55;33.35
39411;BME280;26579;43.238;23.124;2023-10-31T12:47:39;96361.66;;;23.55;33.41
39411;BME280;26579;43.238;23.124;2023-10-31T12:50:12;96369.47;;;23.49;32.49
39411;BME280;26579;43.238;23.124;2023-10-31T12:52:51;96359.47;;;23.33;32.78
39411;BME280;26579;43.238;23.124;2023-10-31T12:55:21;96372.13;;;23.31;33.05
39411;BME280;26579;43.238;23.124;2023-10-31T12:57:49;96384.81;;;23.29;33.71
39411;BME280;26579;43.238;23.124;2023-10-31T13:00:16;96379.50;;;23.29;33.68